This is the latest recevied weather packets stored in our database for station/object G7GQA-4. If no packets are shown the sender has not sent any weather packets the latest 10 day(s).
| Time | Temp. | Humidity | Pressure | Rain* | Wind** | Luminosity | Snow |
|---|---|---|---|---|---|---|---|
| 1777724723 | 18.33° C | 56% | - | 0 mm | - | 747 W/m² | - |
| 1777724123 | 18.89° C | 54% | - | 0 mm | - | 719 W/m² | - |
| 1777721723 | 17.78° C | 57% | - | 0 mm | - | 402 W/m² | - |
| 1777721124 | 17.78° C | 58% | - | 0 mm | - | 470 W/m² | - |
| 1777720523 | 17.22° C | 57% | - | 0 mm | - | 387 W/m² | - |
| 1777719923 | 17.78° C | 58% | - | 0 mm | - | 639 W/m² | - |
| 1777719323 | 16.67° C | 60% | - | 0 mm | - | 526 W/m² | - |
| 1777718723 | 17.22° C | 58% | - | 0 mm | - | 511 W/m² | - |
| 1777718123 | 17.22° C | 60% | - | 0 mm | - | 581 W/m² | - |
| 1777717523 | 16.67° C | 62% | - | 0 mm | - | 474 W/m² | - |
| 1777716923 | 17.22° C | 60% | - | 0 mm | - | 441 W/m² | - |
| 1777716323 | 17.22° C | 59% | - | 0 mm | - | 612 W/m² | - |
| 1777715723 | 17.22° C | 60% | - | 0 mm | - | 409 W/m² | - |
| 1777715123 | 16.67° C | 62% | - | 0 mm | - | 631 W/m² | - |
| 1777714523 | 16.11° C | 64% | - | 0 mm | - | 589 W/m² | - |
| 1777713923 | 15.56° C | 66% | - | 0 mm | - | 590 W/m² | - |
| 1777713323 | 15° C | 67% | - | 0 mm | - | 554 W/m² | - |
| 1777712723 | 15° C | 67% | - | 0 mm | - | 574 W/m² | - |
| 1777712123 | 13.89° C | 72% | - | 0 mm | - | 322 W/m² | - |
| 1777711523 | 14.44° C | 72% | - | 0 mm | - | 277 W/m² | - |
| 1777710923 | 13.89° C | 74% | - | 0 mm | - | 276 W/m² | - |
| 1777710323 | 13.89° C | 76% | - | 0 mm | - | 276 W/m² | - |
| 1777709723 | 13.89° C | 74% | - | 0 mm | - | 249 W/m² | - |
| 1777709123 | 14.44° C | 74% | - | 0 mm | - | 168 W/m² | - |
| 1777708523 | 15° C | 71% | - | 0 mm | - | 304 W/m² | - |
* Rain latest hour (hover to see other rain measurements)
** Current wind speed in m/s (hover to see current wind gust speed)